createdAt,value
2018-11-06T00:00:10.629Z,11.60
2018-11-06T00:02:39.325Z,11.70
2018-11-06T00:05:12.021Z,11.80
2018-11-06T00:07:41.133Z,11.90
2018-11-06T00:10:10.034Z,12.00
2018-11-06T00:12:38.720Z,12.00
2018-11-06T00:15:08.259Z,12.00
2018-11-06T00:17:37.225Z,12.00
2018-11-06T00:20:07.561Z,12.10
2018-11-06T00:22:36.381Z,12.00
2018-11-06T00:25:05.937Z,11.80
2018-11-06T00:27:34.627Z,11.60
2018-11-06T00:30:03.350Z,11.50
2018-11-06T00:32:32.038Z,11.30
2018-11-06T00:35:00.725Z,11.20
2018-11-06T00:37:29.409Z,11.10
2018-11-06T00:39:58.121Z,11.00
2018-11-06T00:42:26.825Z,11.00
2018-11-06T00:44:55.545Z,10.90
2018-11-06T00:47:24.254Z,10.80
2018-11-06T00:49:52.962Z,10.80
2018-11-06T00:52:21.661Z,10.60
2018-11-06T00:54:50.341Z,10.50
2018-11-06T00:57:19.029Z,10.40
2018-11-06T00:59:47.730Z,10.40
2018-11-06T01:02:16.400Z,10.40
2018-11-06T01:04:45.109Z,10.40
2018-11-06T01:07:13.790Z,10.50
2018-11-06T01:09:42.480Z,10.80
2018-11-06T01:12:11.166Z,11.10
2018-11-06T01:14:39.841Z,11.30
2018-11-06T01:17:08.520Z,11.50
2018-11-06T01:19:37.192Z,11.60
2018-11-06T01:22:06.024Z,11.60
2018-11-06T01:24:34.719Z,11.70
2018-11-06T01:27:03.440Z,11.70
2018-11-06T01:29:32.124Z,11.60
2018-11-06T01:32:00.825Z,11.60
2018-11-06T01:34:29.516Z,11.50
2018-11-06T01:36:58.265Z,11.30
2018-11-06T01:39:26.960Z,11.10
2018-11-06T01:41:55.655Z,10.90
2018-11-06T01:44:24.352Z,10.70
2018-11-06T01:46:53.057Z,10.60
2018-11-06T01:49:21.740Z,10.60
2018-11-06T01:51:50.436Z,10.40
2018-11-06T01:54:19.121Z,10.30
2018-11-06T01:56:47.812Z,10.30
2018-11-06T01:59:16.515Z,10.20
2018-11-06T02:01:45.229Z,10.10
2018-11-06T02:04:13.920Z,10.00
2018-11-06T02:06:42.603Z,9.80
2018-11-06T02:09:11.306Z,9.80
2018-11-06T02:11:40.124Z,9.70
2018-11-06T02:14:08.804Z,9.70
2018-11-06T02:16:37.491Z,9.70
2018-11-06T02:19:06.202Z,9.60
2018-11-06T02:21:34.899Z,9.60
2018-11-06T02:24:03.846Z,9.80
2018-11-06T02:26:32.533Z,10.10
2018-11-06T02:29:01.211Z,10.70
2018-11-06T02:31:29.891Z,11.20
2018-11-06T02:33:58.580Z,11.50
2018-11-06T02:36:27.267Z,11.70
2018-11-06T02:38:55.951Z,11.80
2018-11-06T02:41:24.635Z,11.90
2018-11-06T02:43:53.336Z,11.90
2018-11-06T02:46:22.030Z,11.90
2018-11-06T02:48:50.706Z,11.80
2018-11-06T02:51:19.390Z,11.90
2018-11-06T02:53:48.083Z,11.90
2018-11-06T02:56:16.771Z,12.00
2018-11-06T02:58:45.448Z,12.00
2018-11-06T03:01:14.140Z,12.10
2018-11-06T03:03:42.917Z,12.10
2018-11-06T03:06:12.528Z,12.10
2018-11-06T03:08:41.614Z,12.10
2018-11-06T03:11:10.323Z,12.00
2018-11-06T03:13:39.004Z,12.00
2018-11-06T03:16:07.755Z,12.10
2018-11-06T03:18:36.428Z,12.10
2018-11-06T03:21:05.118Z,12.20
2018-11-06T03:23:33.791Z,12.20
2018-11-06T03:26:02.480Z,12.20
2018-11-06T03:28:31.223Z,12.20
2018-11-06T03:30:59.900Z,12.20
2018-11-06T03:33:28.579Z,12.20
2018-11-06T03:35:57.267Z,12.30
2018-11-06T03:38:25.951Z,12.20
2018-11-06T03:40:54.624Z,12.20
2018-11-06T03:43:23.296Z,12.20
2018-11-06T03:45:52.195Z,12.20
2018-11-06T03:48:20.892Z,12.20
2018-11-06T03:50:49.579Z,12.30
2018-11-06T03:53:18.264Z,12.30
2018-11-06T03:55:46.936Z,12.30
2018-11-06T03:58:15.614Z,12.30
2018-11-06T04:00:44.289Z,12.30
2018-11-06T04:03:12.963Z,12.40
2018-11-06T04:05:41.720Z,12.30
2018-11-06T04:08:10.376Z,12.30
2018-11-06T04:10:39.043Z,12.20
2018-11-06T04:13:07.737Z,12.10
2018-11-06T04:15:36.400Z,12.10
2018-11-06T04:18:05.469Z,12.20
2018-11-06T04:20:34.138Z,12.40
2018-11-06T04:23:02.983Z,12.40
2018-11-06T04:25:31.708Z,12.30
2018-11-06T04:28:00.363Z,12.20
2018-11-06T04:30:29.032Z,12.00
2018-11-06T04:32:57.710Z,11.80
2018-11-06T04:35:26.387Z,11.60
2018-11-06T04:37:55.071Z,11.40
2018-11-06T04:40:23.748Z,11.30
2018-11-06T04:42:52.420Z,11.30
2018-11-06T04:45:21.094Z,11.20
2018-11-06T04:47:49.774Z,11.20
2018-11-06T04:50:20.052Z,11.10
2018-11-06T04:52:48.743Z,11.00
2018-11-06T04:55:17.415Z,11.00
2018-11-06T04:57:46.090Z,11.10
2018-11-06T05:00:15.523Z,11.20
2018-11-06T05:02:44.647Z,11.50
2018-11-06T05:05:13.607Z,11.50
2018-11-06T05:07:42.291Z,11.60
2018-11-06T05:10:12.308Z,11.40
2018-11-06T05:12:40.996Z,11.30
2018-11-06T05:15:11.415Z,11.20
2018-11-06T05:17:40.100Z,11.20
2018-11-06T05:20:11.043Z,11.10
2018-11-06T05:22:39.727Z,11.00
2018-11-06T05:25:08.923Z,11.00
2018-11-06T05:27:37.851Z,11.00
2018-11-06T05:30:07.449Z,11.00
2018-11-06T05:32:36.160Z,11.00
2018-11-06T05:35:05.849Z,11.20
2018-11-06T05:37:34.711Z,11.20
2018-11-06T05:40:15.042Z,11.40
2018-11-06T05:42:43.775Z,11.40
2018-11-06T05:45:12.495Z,11.30
2018-11-06T05:47:41.180Z,11.20
2018-11-06T05:50:10.024Z,11.10
2018-11-06T05:52:38.707Z,10.90
2018-11-06T05:55:07.382Z,10.90
2018-11-06T05:57:36.106Z,10.90
2018-11-06T06:00:05.279Z,10.90
2018-11-06T06:02:33.999Z,10.90
2018-11-06T06:05:02.679Z,10.80
2018-11-06T06:07:31.362Z,10.80
2018-11-06T06:10:00.026Z,10.60
2018-11-06T06:12:28.712Z,10.50
2018-11-06T06:14:57.385Z,10.50
2018-11-06T06:17:26.079Z,10.60
2018-11-06T06:19:54.776Z,10.50
2018-11-06T06:22:23.573Z,10.60
2018-11-06T06:24:52.227Z,10.50
2018-11-06T06:27:20.923Z,10.60
2018-11-06T06:29:49.604Z,10.80
2018-11-06T06:32:18.279Z,10.80
2018-11-06T06:34:47.054Z,11.00
2018-11-06T06:37:15.660Z,11.00
2018-11-06T06:39:44.326Z,11.00
2018-11-06T06:42:13.027Z,11.10
2018-11-06T06:44:41.720Z,11.20
2018-11-06T06:47:10.390Z,11.20
2018-11-06T06:49:39.080Z,11.40
2018-11-06T06:52:07.760Z,11.50
2018-11-06T06:54:36.772Z,11.80
2018-11-06T06:57:05.152Z,12.10
2018-11-06T06:59:33.851Z,12.50
2018-11-06T07:02:02.552Z,12.70
2018-11-06T07:04:31.236Z,12.90
2018-11-06T07:06:59.911Z,13.20
2018-11-06T07:09:28.607Z,13.40
2018-11-06T07:11:57.281Z,13.70
2018-11-06T07:14:25.961Z,14.00
2018-11-06T07:16:54.675Z,14.20
2018-11-06T07:19:23.375Z,14.40
2018-11-06T07:21:52.084Z,14.70
2018-11-06T07:24:20.767Z,15.10
2018-11-06T07:26:49.446Z,15.40
2018-11-06T07:29:18.226Z,15.60
2018-11-06T07:31:46.939Z,15.80
2018-11-06T07:34:15.633Z,15.90
2018-11-06T07:36:44.316Z,15.80
2018-11-06T07:39:13.219Z,15.80
2018-11-06T07:41:41.895Z,15.90
2018-11-06T07:44:11.324Z,15.90
2018-11-06T07:46:40.119Z,16.10
2018-11-06T07:49:08.843Z,16.30
2018-11-06T07:51:37.518Z,16.60
2018-11-06T07:54:06.204Z,16.60
2018-11-06T07:56:34.883Z,16.70
2018-11-06T07:59:03.783Z,16.90
2018-11-06T08:01:32.464Z,17.00
2018-11-06T08:04:01.161Z,17.10
2018-11-06T08:06:29.978Z,17.20
2018-11-06T08:08:58.495Z,17.40
2018-11-06T08:11:27.188Z,17.50
2018-11-06T08:13:55.882Z,17.50
2018-11-06T08:16:24.661Z,17.70
2018-11-06T08:18:53.356Z,17.90
2018-11-06T08:21:22.039Z,18.20
2018-11-06T08:23:50.765Z,18.50
2018-11-06T08:26:19.509Z,18.80
2018-11-06T08:28:48.271Z,18.80
2018-11-06T08:31:17.358Z,19.00
2018-11-06T08:33:45.691Z,19.30
2018-11-06T08:36:14.384Z,19.60
2018-11-06T08:38:43.142Z,19.80
2018-11-06T08:41:11.792Z,19.90
2018-11-06T08:43:40.483Z,19.80
2018-11-06T08:46:09.959Z,19.80
2018-11-06T08:48:38.657Z,19.30
2018-11-06T08:51:07.384Z,19.10
2018-11-06T08:53:36.055Z,19.10
2018-11-06T08:56:04.927Z,19.10
2018-11-06T08:58:33.617Z,19.20
2018-11-06T09:01:02.293Z,18.60
2018-11-06T09:03:31.012Z,18.60
2018-11-06T09:05:59.687Z,18.90
2018-11-06T09:08:28.377Z,19.30
2018-11-06T09:10:57.051Z,19.40
2018-11-06T09:13:25.830Z,19.50
2018-11-06T09:15:54.507Z,19.50
2018-11-06T09:18:23.187Z,19.70
2018-11-06T09:20:51.883Z,19.90
2018-11-06T09:23:20.630Z,20.10
2018-11-06T09:25:49.302Z,20.30
2018-11-06T09:28:17.997Z,20.50
2018-11-06T09:30:46.679Z,20.60
2018-11-06T09:33:15.346Z,20.50
2018-11-06T09:35:44.043Z,20.30
2018-11-06T09:38:12.810Z,19.80
2018-11-06T09:40:41.464Z,19.40
2018-11-06T09:43:10.153Z,19.10
2018-11-06T09:45:38.843Z,19.10
2018-11-06T09:48:07.539Z,19.00
2018-11-06T09:50:36.246Z,19.10
2018-11-06T09:53:04.929Z,19.40
2018-11-06T09:55:33.610Z,19.70
2018-11-06T09:58:02.340Z,19.90
2018-11-06T10:00:31.020Z,20.20
2018-11-06T10:02:59.705Z,20.40
2018-11-06T10:05:28.390Z,20.60
2018-11-06T10:07:57.167Z,20.60
2018-11-06T10:10:25.779Z,20.50
2018-11-06T10:12:54.456Z,20.40
2018-11-06T10:15:23.139Z,20.50
2018-11-06T10:17:51.948Z,20.70
2018-11-06T10:20:21.263Z,20.70
2018-11-06T10:22:50.163Z,20.50
2018-11-06T10:25:18.842Z,20.00
2018-11-06T10:27:47.526Z,19.40
2018-11-06T10:30:18.425Z,19.00
2018-11-06T10:32:47.115Z,18.90
2018-11-06T10:35:15.843Z,18.90
2018-11-06T10:37:44.547Z,19.10
2018-11-06T10:40:19.333Z,19.40
2018-11-06T10:42:48.243Z,19.60
2018-11-06T10:45:17.623Z,19.90
2018-11-06T10:47:46.614Z,20.30
2018-11-06T10:50:15.915Z,20.50
2018-11-06T10:52:45.216Z,20.70
2018-11-06T10:55:13.889Z,20.90
2018-11-06T10:57:42.891Z,21.20
2018-11-06T11:00:18.093Z,21.40
2018-11-06T11:02:52.255Z,21.40
2018-11-06T11:05:22.579Z,21.20
2018-11-06T11:07:51.248Z,20.90
2018-11-06T11:10:19.956Z,20.60
2018-11-06T11:12:48.651Z,20.30
2018-11-06T11:15:17.326Z,20.00
2018-11-06T11:17:46.020Z,19.70
2018-11-06T11:20:15.204Z,19.40
2018-11-06T11:22:43.880Z,19.20
2018-11-06T11:25:13.591Z,19.10
2018-11-06T11:27:42.887Z,19.00
2018-11-06T11:30:12.899Z,18.90
2018-11-06T11:32:43.120Z,18.90
2018-11-06T11:35:12.049Z,18.80
2018-11-06T11:37:40.806Z,18.70
2018-11-06T11:40:10.606Z,18.60
2018-11-06T11:42:39.279Z,18.40
2018-11-06T11:45:09.526Z,18.30
2018-11-06T11:47:38.504Z,18.10
2018-11-06T11:50:08.635Z,17.90
2018-11-06T11:52:37.344Z,17.80
2018-11-06T11:55:06.416Z,17.70
2018-11-06T11:57:35.095Z,17.60
2018-11-06T12:00:04.063Z,17.50
2018-11-06T12:02:32.720Z,17.50
2018-11-06T12:05:01.401Z,17.50
2018-11-06T12:07:30.235Z,17.50
2018-11-06T12:09:58.936Z,17.50
2018-11-06T12:12:27.629Z,17.50
2018-11-06T12:14:56.324Z,17.50
2018-11-06T12:17:25.150Z,17.50
2018-11-06T12:19:53.763Z,17.50
2018-11-06T12:22:22.428Z,17.40
2018-11-06T12:24:51.224Z,17.50
2018-11-06T12:27:19.835Z,17.40
2018-11-06T12:29:48.515Z,17.40
2018-11-06T12:32:17.222Z,17.40
2018-11-06T12:34:45.891Z,17.40
2018-11-06T12:37:14.597Z,17.50
2018-11-06T12:39:43.263Z,17.40
2018-11-06T12:42:11.960Z,17.30
2018-11-06T12:44:41.032Z,17.30
2018-11-06T12:47:09.702Z,17.40
2018-11-06T12:49:38.376Z,17.40
2018-11-06T12:52:07.057Z,17.40
2018-11-06T12:54:35.731Z,17.40
2018-11-06T12:57:05.815Z,17.40
2018-11-06T12:59:34.482Z,17.40
2018-11-06T13:02:03.228Z,17.40
2018-11-06T13:04:31.895Z,17.30
2018-11-06T13:07:00.575Z,17.40
2018-11-06T13:09:29.256Z,17.40
2018-11-06T13:11:57.935Z,17.30
2018-11-06T13:14:26.628Z,17.30
2018-11-06T13:16:55.334Z,17.30
2018-11-06T13:19:23.988Z,17.30
2018-11-06T13:21:52.667Z,17.40
2018-11-06T13:24:21.455Z,17.40
2018-11-06T13:26:50.128Z,17.50
2018-11-06T13:29:18.926Z,17.40
2018-11-06T13:31:47.587Z,17.30
2018-11-06T13:34:16.275Z,17.20
2018-11-06T13:36:45.010Z,17.20
2018-11-06T13:39:13.872Z,17.30
2018-11-06T13:41:43.459Z,17.20
2018-11-06T13:44:12.462Z,17.20
2018-11-06T13:46:40.833Z,17.10
2018-11-06T13:49:09.507Z,17.00
2018-11-06T13:51:38.196Z,16.90
2018-11-06T13:54:06.874Z,17.00
2018-11-06T13:56:35.563Z,17.00
2018-11-06T13:59:04.272Z,16.80
2018-11-06T14:01:33.140Z,16.70
2018-11-06T14:04:01.829Z,16.70
2018-11-06T14:06:30.548Z,16.60
2018-11-06T14:08:59.224Z,16.60
2018-11-06T14:11:28.111Z,16.60
2018-11-06T14:13:56.816Z,16.60
2018-11-06T14:16:26.520Z,16.60
2018-11-06T14:18:55.216Z,16.60
2018-11-06T14:21:23.903Z,16.50
2018-11-06T14:23:52.608Z,16.40
2018-11-06T14:26:21.276Z,16.40
2018-11-06T14:28:49.947Z,16.30
2018-11-06T14:31:18.644Z,16.20
2018-11-06T14:33:47.328Z,16.20
2018-11-06T14:36:16.008Z,16.10
2018-11-06T14:38:44.706Z,16.00
2018-11-06T14:41:13.383Z,15.90
2018-11-06T14:43:42.079Z,15.90
2018-11-06T14:46:10.775Z,15.80
2018-11-06T14:48:39.632Z,15.70
2018-11-06T14:51:08.148Z,15.60
2018-11-06T14:53:36.820Z,15.50
2018-11-06T14:56:05.901Z,15.40
2018-11-06T14:58:34.837Z,15.30
2018-11-06T15:01:03.531Z,15.10
2018-11-06T15:03:32.243Z,15.00
2018-11-06T15:06:01.020Z,14.90
2018-11-06T15:08:29.695Z,14.80
2018-11-06T15:10:58.378Z,14.70
2018-11-06T15:13:27.080Z,14.60
2018-11-06T15:15:55.728Z,14.60
2018-11-06T15:18:24.423Z,14.50
2018-11-06T15:20:53.216Z,14.40
2018-11-06T15:23:21.823Z,14.30
2018-11-06T15:25:50.510Z,14.20
2018-11-06T15:28:19.211Z,14.10
2018-11-06T15:30:47.923Z,14.00
2018-11-06T15:33:16.623Z,13.90
2018-11-06T15:35:45.279Z,13.80
2018-11-06T15:38:13.963Z,13.70
2018-11-06T15:40:42.641Z,13.70
2018-11-06T15:43:11.319Z,13.60
2018-11-06T15:45:39.991Z,13.50
2018-11-06T15:48:08.671Z,13.30
2018-11-06T15:50:37.342Z,13.30
2018-11-06T15:53:06.019Z,13.20
2018-11-06T15:55:34.699Z,13.10
2018-11-06T15:58:03.377Z,13.10
2018-11-06T16:00:32.087Z,13.00
2018-11-06T16:03:00.703Z,13.00
2018-11-06T16:05:29.376Z,12.90
2018-11-06T16:07:58.045Z,12.80
2018-11-06T16:10:26.711Z,12.80
2018-11-06T16:12:55.387Z,12.80
2018-11-06T16:15:24.145Z,12.70
2018-11-06T16:17:52.743Z,12.70
2018-11-06T16:20:21.755Z,12.60
2018-11-06T16:22:50.538Z,12.60
2018-11-06T16:25:19.870Z,12.60
2018-11-06T16:27:48.832Z,12.60
2018-11-06T16:30:18.735Z,12.60
2018-11-06T16:32:47.465Z,12.60
2018-11-06T16:35:17.335Z,12.60
2018-11-06T16:37:46.438Z,12.50
2018-11-06T16:40:15.534Z,12.50
2018-11-06T16:42:44.946Z,12.60
2018-11-06T16:45:16.392Z,12.50
2018-11-06T16:47:46.297Z,12.50
2018-11-06T16:50:16.107Z,12.50
2018-11-06T16:52:44.775Z,12.50
2018-11-06T16:55:13.779Z,12.60
2018-11-06T16:57:43.398Z,12.50
2018-11-06T17:00:17.497Z,12.50
2018-11-06T17:02:46.020Z,12.60
2018-11-06T17:05:15.288Z,12.50
2018-11-06T17:07:44.396Z,12.50
2018-11-06T17:10:13.978Z,12.50
2018-11-06T17:12:42.704Z,12.40
2018-11-06T17:15:14.330Z,12.30
2018-11-06T17:17:43.625Z,12.20
2018-11-06T17:20:12.919Z,12.00
2018-11-06T17:22:41.720Z,11.90
2018-11-06T17:25:13.059Z,11.70
2018-11-06T17:27:41.735Z,11.70
2018-11-06T17:30:12.381Z,11.60
2018-11-06T17:32:41.431Z,11.60
2018-11-06T17:35:11.687Z,11.60
2018-11-06T17:37:40.787Z,11.60
2018-11-06T17:40:11.623Z,11.60
2018-11-06T17:42:40.616Z,11.70
2018-11-06T17:45:11.591Z,11.70
2018-11-06T17:47:40.647Z,11.70
2018-11-06T17:50:10.859Z,11.70
2018-11-06T17:52:39.581Z,11.80
2018-11-06T17:55:09.940Z,11.90
2018-11-06T17:57:38.979Z,12.00
2018-11-06T18:00:09.671Z,12.10
2018-11-06T18:02:39.212Z,12.20
2018-11-06T18:05:08.411Z,12.20
2018-11-06T18:07:37.633Z,12.20
2018-11-06T18:10:07.233Z,12.20
2018-11-06T18:12:35.992Z,12.30
2018-11-06T18:15:04.887Z,12.30
2018-11-06T18:17:33.605Z,12.40
2018-11-06T18:20:02.231Z,12.60
2018-11-06T18:22:31.147Z,12.60
2018-11-06T18:24:59.884Z,12.50
2018-11-06T18:27:28.516Z,12.40
2018-11-06T18:29:57.191Z,12.40
2018-11-06T18:32:25.876Z,12.40
2018-11-06T18:34:54.595Z,12.40
2018-11-06T18:37:23.301Z,12.30
2018-11-06T18:39:51.971Z,12.30
2018-11-06T18:42:20.639Z,12.20
2018-11-06T18:44:49.342Z,12.20
2018-11-06T18:47:18.066Z,12.30
2018-11-06T18:49:46.716Z,12.30
2018-11-06T18:52:15.366Z,12.30
2018-11-06T18:54:44.042Z,12.50
2018-11-06T18:57:12.722Z,12.70
2018-11-06T18:59:41.393Z,12.80
2018-11-06T19:02:10.074Z,12.90
2018-11-06T19:04:38.819Z,13.00
2018-11-06T19:07:07.580Z,13.00
2018-11-06T19:09:36.260Z,13.00
2018-11-06T19:12:05.175Z,13.00
2018-11-06T19:14:33.868Z,13.00
2018-11-06T19:17:02.620Z,13.00
2018-11-06T19:19:31.228Z,13.10
2018-11-06T19:21:59.895Z,13.20
2018-11-06T19:24:28.567Z,13.20
2018-11-06T19:26:57.282Z,13.20
2018-11-06T19:29:25.955Z,13.20
2018-11-06T19:31:54.773Z,13.30
2018-11-06T19:34:23.534Z,13.20
2018-11-06T19:36:52.191Z,13.30
2018-11-06T19:39:20.868Z,13.30
2018-11-06T19:41:49.544Z,13.30
2018-11-06T19:44:18.235Z,13.30
2018-11-06T19:46:46.904Z,13.20
2018-11-06T19:49:15.575Z,13.10
2018-11-06T19:51:44.255Z,13.10
2018-11-06T19:54:12.955Z,13.20
2018-11-06T19:56:41.743Z,13.20
2018-11-06T19:59:10.398Z,13.20
2018-11-06T20:01:39.071Z,13.20
2018-11-06T20:04:07.745Z,13.20
2018-11-06T20:06:36.432Z,13.10
2018-11-06T20:09:07.408Z,13.20
2018-11-06T20:11:36.428Z,13.20
2018-11-06T20:14:05.231Z,13.10
2018-11-06T20:16:33.916Z,13.10
2018-11-06T20:19:02.603Z,13.20
2018-11-06T20:21:31.412Z,13.00
2018-11-06T20:24:00.028Z,12.90
2018-11-06T20:26:28.679Z,12.90
2018-11-06T20:28:57.414Z,12.70
2018-11-06T20:31:26.122Z,12.50
2018-11-06T20:33:54.823Z,12.40
2018-11-06T20:36:23.556Z,12.20
2018-11-06T20:38:52.231Z,12.00
2018-11-06T20:41:20.908Z,11.80
2018-11-06T20:43:49.597Z,11.70
2018-11-06T20:46:18.270Z,11.60
2018-11-06T20:48:46.976Z,11.40
2018-11-06T20:51:15.607Z,11.30
2018-11-06T20:53:44.454Z,11.20
2018-11-06T20:56:13.120Z,11.10
2018-11-06T20:58:41.786Z,11.00
2018-11-06T21:01:10.531Z,10.90
2018-11-06T21:03:39.139Z,10.80
2018-11-06T21:06:07.807Z,10.70
2018-11-06T21:08:36.499Z,10.70
2018-11-06T21:11:05.564Z,10.60
2018-11-06T21:13:34.251Z,10.50
2018-11-06T21:16:02.915Z,10.40
2018-11-06T21:18:31.627Z,10.40
2018-11-06T21:21:00.264Z,10.30
2018-11-06T21:23:28.931Z,10.30
2018-11-06T21:25:57.873Z,10.20
2018-11-06T21:28:26.294Z,10.20
2018-11-06T21:30:54.964Z,10.20
2018-11-06T21:33:23.635Z,10.20
2018-11-06T21:35:52.311Z,10.20
2018-11-06T21:38:20.983Z,10.20
2018-11-06T21:40:49.658Z,10.20
2018-11-06T21:43:18.341Z,10.30
2018-11-06T21:45:47.020Z,10.30
2018-11-06T21:48:15.692Z,10.30
2018-11-06T21:50:44.374Z,10.40
2018-11-06T21:53:13.043Z,10.40
2018-11-06T21:55:41.803Z,10.40
2018-11-06T21:58:10.462Z,10.40
2018-11-06T22:00:39.156Z,10.50
2018-11-06T22:03:07.822Z,10.50
2018-11-06T22:05:36.499Z,10.40
2018-11-06T22:08:05.171Z,10.30
2018-11-06T22:10:33.859Z,10.30
2018-11-06T22:13:02.621Z,10.30
2018-11-06T22:15:31.237Z,10.20
2018-11-06T22:17:59.906Z,10.20
2018-11-06T22:20:28.592Z,10.30
2018-11-06T22:22:57.275Z,10.30
2018-11-06T22:25:25.942Z,10.30
2018-11-06T22:27:54.693Z,10.30
2018-11-06T22:30:23.339Z,10.40
2018-11-06T22:32:52.023Z,10.50
2018-11-06T22:35:20.687Z,10.80
2018-11-06T22:37:49.357Z,11.10
2018-11-06T22:40:18.500Z,11.30
2018-11-06T22:42:47.176Z,11.50
2018-11-06T22:45:16.927Z,11.60
2018-11-06T22:47:45.595Z,11.50
2018-11-06T22:50:15.594Z,11.40
2018-11-06T22:52:44.883Z,11.30
2018-11-06T22:55:13.662Z,11.10
2018-11-06T22:57:42.439Z,11.00
2018-11-06T23:00:18.443Z,11.00
2018-11-06T23:02:47.123Z,11.00
2018-11-06T23:05:15.794Z,10.90
2018-11-06T23:07:49.887Z,10.80
2018-11-06T23:10:18.575Z,10.70
2018-11-06T23:12:47.246Z,10.60
2018-11-06T23:15:15.935Z,10.60
2018-11-06T23:17:44.611Z,10.60
2018-11-06T23:20:13.297Z,10.60
2018-11-06T23:22:42.144Z,10.50
2018-11-06T23:25:10.808Z,10.60
2018-11-06T23:27:39.695Z,10.70
2018-11-06T23:30:10.322Z,10.80
2018-11-06T23:32:39.135Z,10.90
2018-11-06T23:35:07.840Z,11.00
2018-11-06T23:37:36.991Z,11.10
2018-11-06T23:40:05.973Z,11.20
2018-11-06T23:42:34.682Z,11.10
2018-11-06T23:45:03.760Z,11.00
2018-11-06T23:47:32.455Z,10.90
2018-11-06T23:50:01.236Z,10.90
2018-11-06T23:52:30.044Z,10.80
2018-11-06T23:54:59.010Z,10.80
2018-11-06T23:57:28.729Z,10.80
2018-11-06T23:59:57.620Z,10.90
